createdAt,value
2018-11-11T00:01:46.381Z,5.27
2018-11-11T00:04:18.930Z,6.97
2018-11-11T00:06:51.856Z,6.60
2018-11-11T00:09:24.726Z,4.40
2018-11-11T00:11:57.285Z,6.33
2018-11-11T00:14:31.858Z,8.13
2018-11-11T00:17:04.444Z,9.47
2018-11-11T00:19:37.012Z,9.80
2018-11-11T00:22:11.199Z,10.13
2018-11-11T00:24:43.902Z,8.93
2018-11-11T00:27:16.519Z,7.13
2018-11-11T00:29:49.128Z,7.00
2018-11-11T00:32:21.686Z,7.77
2018-11-11T00:34:54.252Z,9.37
2018-11-11T00:37:27.080Z,7.27
2018-11-11T00:39:59.844Z,10.67
2018-11-11T00:42:32.538Z,6.13
2018-11-11T00:45:05.276Z,13.40
2018-11-11T00:47:37.876Z,8.90
2018-11-11T00:50:11.869Z,11.50
2018-11-11T00:52:44.487Z,9.70
2018-11-11T00:55:18.436Z,6.67
2018-11-11T00:57:50.993Z,9.13
2018-11-11T01:00:23.679Z,10.37
2018-11-11T01:02:56.920Z,7.70
2018-11-11T01:05:29.549Z,6.37
2018-11-11T01:08:04.555Z,7.87
2018-11-11T01:10:37.211Z,5.13
2018-11-11T01:13:09.824Z,10.37
2018-11-11T01:15:42.414Z,7.20
2018-11-11T01:18:14.971Z,7.77
2018-11-11T01:20:50.525Z,7.37
2018-11-11T01:23:23.162Z,7.73
2018-11-11T01:25:55.714Z,7.87
2018-11-11T01:28:28.550Z,6.47
2018-11-11T01:31:01.455Z,5.63
2018-11-11T01:33:34.076Z,7.70
2018-11-11T01:36:06.703Z,6.57
2018-11-11T01:38:39.279Z,8.90
2018-11-11T01:41:11.933Z,6.60
2018-11-11T01:43:44.483Z,11.13
2018-11-11T01:46:17.047Z,9.37
2018-11-11T01:48:49.619Z,7.60
2018-11-11T01:54:43.754Z,6.87
2018-11-11T01:57:16.308Z,7.10
2018-11-11T01:59:48.867Z,6.13
2018-11-11T02:02:21.515Z,7.80
2018-11-11T02:04:54.085Z,7.80
2018-11-11T02:07:26.671Z,4.90
2018-11-11T02:09:59.311Z,5.93
2018-11-11T02:12:32.019Z,5.03
2018-11-11T02:15:04.728Z,6.13
2018-11-11T02:17:37.377Z,6.20
2018-11-11T02:20:13.896Z,6.07
2018-11-11T02:22:49.030Z,8.20
2018-11-11T02:30:24.435Z,6.90
2018-11-11T02:37:58.710Z,11.80
2018-11-11T02:40:31.260Z,9.33
2018-11-11T02:43:03.828Z,6.47
2018-11-11T02:45:36.366Z,8.03
2018-11-11T02:48:09.572Z,5.67
2018-11-11T02:50:43.340Z,5.83
2018-11-11T02:53:16.209Z,6.03
2018-11-11T02:55:50.033Z,7.67
2018-11-11T02:58:22.910Z,9.90
2018-11-11T03:00:55.959Z,6.40
2018-11-11T03:03:28.829Z,5.47
2018-11-11T03:06:01.486Z,4.43
2018-11-11T03:08:34.095Z,5.50
2018-11-11T03:11:06.704Z,6.13
2018-11-11T03:17:00.902Z,6.10
2018-11-11T03:20:18.793Z,7.23
2018-11-11T03:22:51.564Z,6.47
2018-11-11T03:27:55.088Z,5.43
2018-11-11T03:30:27.757Z,6.50
2018-11-11T03:38:02.002Z,5.30
2018-11-11T03:43:41.556Z,6.87
2018-11-11T03:46:13.924Z,6.17
2018-11-11T03:48:46.287Z,4.75
2018-11-11T03:51:18.627Z,7.20
2018-11-11T03:56:21.620Z,7.45
2018-11-11T04:01:36.616Z,4.83
2018-11-11T04:04:18.034Z,5.10
2018-11-11T04:07:04.672Z,5.73
2018-11-11T04:09:37.204Z,7.93
2018-11-11T04:12:10.441Z,7.67
2018-11-11T04:14:42.787Z,4.20
2018-11-11T04:17:15.159Z,6.37
2018-11-11T04:19:47.572Z,5.90
2018-11-11T04:37:29.045Z,6.63
2018-11-11T04:40:01.444Z,6.17
2018-11-11T04:42:33.851Z,4.87
2018-11-11T04:45:06.235Z,7.37
2018-11-11T04:47:38.574Z,5.33
2018-11-11T04:50:13.786Z,3.10
2018-11-11T04:52:46.798Z,3.93
2018-11-11T04:55:19.203Z,6.03
2018-11-11T04:57:51.567Z,3.47
2018-11-11T05:00:23.932Z,3.47
2018-11-11T05:02:56.301Z,5.27
2018-11-11T05:05:28.691Z,4.07
2018-11-11T05:08:01.032Z,4.37
2018-11-11T05:10:33.427Z,5.90
2018-11-11T05:13:05.820Z,3.63
2018-11-11T05:15:38.201Z,2.80
2018-11-11T05:18:10.738Z,4.17
2018-11-11T05:20:43.099Z,4.53
2018-11-11T05:23:15.613Z,3.53
2018-11-11T05:25:48.122Z,4.17
2018-11-11T05:28:20.543Z,3.80
2018-11-11T05:30:52.964Z,4.23
2018-11-11T05:33:25.372Z,4.70
2018-11-11T05:35:57.711Z,3.63
2018-11-11T05:38:30.137Z,4.47
2018-11-11T05:41:02.452Z,6.47
2018-11-11T05:43:34.814Z,6.40
2018-11-11T05:46:07.257Z,4.13
2018-11-11T05:48:39.619Z,4.00
2018-11-11T05:51:11.970Z,5.43
2018-11-11T05:53:44.609Z,4.27
2018-11-11T05:56:16.972Z,6.40
2018-11-11T05:58:49.394Z,4.30
2018-11-11T06:01:23.075Z,4.17
2018-11-11T06:03:55.488Z,4.57
2018-11-11T06:06:27.831Z,5.00
2018-11-11T06:09:00.167Z,4.57
2018-11-11T06:11:32.514Z,7.20
2018-11-11T06:14:04.853Z,5.90
2018-11-11T06:16:37.293Z,5.70
2018-11-11T06:19:09.909Z,7.97
2018-11-11T06:21:42.272Z,5.87
2018-11-11T06:24:14.638Z,6.10
2018-11-11T06:26:47.094Z,5.37
2018-11-11T06:29:19.403Z,6.30
2018-11-11T06:31:51.800Z,7.60
2018-11-11T06:34:24.149Z,6.03
2018-11-11T06:36:56.511Z,6.00
2018-11-11T06:39:29.491Z,5.93
2018-11-11T06:42:01.863Z,6.87
2018-11-11T06:44:34.246Z,7.77
2018-11-11T06:47:06.591Z,6.60
2018-11-11T06:49:38.948Z,5.90
2018-11-11T06:52:11.322Z,5.63
2018-11-11T06:58:05.217Z,5.30
2018-11-11T07:00:38.057Z,6.07
2018-11-11T07:03:19.920Z,6.10
2018-11-11T07:05:52.662Z,5.90
2018-11-11T07:08:25.404Z,6.03
2018-11-11T07:10:58.214Z,9.90
2018-11-11T07:13:30.961Z,7.20
2018-11-11T07:23:08.386Z,9.37
2018-11-11T07:25:41.062Z,10.20
2018-11-11T07:28:13.742Z,7.00
2018-11-11T07:30:46.395Z,7.27
2018-11-11T07:33:19.459Z,6.63
2018-11-11T07:35:52.135Z,7.00
2018-11-11T07:38:24.792Z,7.47
2018-11-11T07:40:57.434Z,5.37
2018-11-11T07:43:30.074Z,8.00
2018-11-11T07:46:02.744Z,5.40
2018-11-11T07:48:35.423Z,5.23
2018-11-11T07:51:08.235Z,9.23
2018-11-11T07:53:41.763Z,5.00
2018-11-11T07:56:14.530Z,6.40
2018-11-11T07:58:47.478Z,9.63
2018-11-11T08:01:20.128Z,6.50
2018-11-11T08:03:53.649Z,7.07
2018-11-11T08:06:26.593Z,6.00
2018-11-11T08:08:59.226Z,7.70
2018-11-11T08:12:11.371Z,7.30
2018-11-11T08:14:44.065Z,6.57
2018-11-11T08:17:16.711Z,6.90
2018-11-11T08:19:49.358Z,6.27
2018-11-11T08:22:21.994Z,6.43
2018-11-11T08:24:54.648Z,8.60
2018-11-11T08:27:27.302Z,6.67
2018-11-11T08:29:59.944Z,7.73
2018-11-11T08:32:32.613Z,5.67
2018-11-11T08:35:05.262Z,10.03
2018-11-11T08:37:38.080Z,6.73
2018-11-11T08:40:12.353Z,5.97
2018-11-11T08:42:45.065Z,7.17
2018-11-11T08:45:18.691Z,6.23
2018-11-11T08:47:51.342Z,6.63
2018-11-11T08:50:23.979Z,8.60
2018-11-11T08:52:56.625Z,8.50
2018-11-11T08:55:29.298Z,7.37
2018-11-11T08:58:02.013Z,7.53
2018-11-11T09:00:34.731Z,6.97
2018-11-11T09:03:08.174Z,6.97
2018-11-11T09:05:40.845Z,7.77
2018-11-11T09:08:13.751Z,6.13
2018-11-11T09:14:06.791Z,5.90
2018-11-11T09:16:39.109Z,7.30
2018-11-11T09:19:11.336Z,7.33
2018-11-11T09:21:43.622Z,10.30
2018-11-11T09:24:15.989Z,8.40
2018-11-11T09:26:48.263Z,12.13
2018-11-11T09:29:20.451Z,7.23
2018-11-11T09:32:25.680Z,6.23
2018-11-11T09:34:58.055Z,7.50
2018-11-11T09:37:30.388Z,8.77
2018-11-11T09:40:02.992Z,7.20
2018-11-11T09:42:35.472Z,8.53
2018-11-11T09:45:10.190Z,7.97
2018-11-11T09:47:42.656Z,7.27
2018-11-11T09:50:17.336Z,7.50
2018-11-11T09:56:10.614Z,9.13
2018-11-11T09:58:43.158Z,7.30
2018-11-11T10:01:15.766Z,8.00
2018-11-11T10:05:54.496Z,8.13
2018-11-11T10:08:31.317Z,7.30
2018-11-11T10:11:09.057Z,11.57
2018-11-11T10:13:51.922Z,13.17
2018-11-11T10:18:31.403Z,7.23
2018-11-11T10:21:10.411Z,8.83
2018-11-11T10:23:51.826Z,9.03
2018-11-11T10:30:00.339Z,7.73
2018-11-11T10:36:28.581Z,6.43
2018-11-11T10:39:08.678Z,7.40
2018-11-11T10:41:52.523Z,6.70
2018-11-11T10:45:28.176Z,7.17
2018-11-11T10:48:08.726Z,7.53
2018-11-11T10:50:44.748Z,9.60
2018-11-11T10:53:17.664Z,6.80
2018-11-11T10:55:50.793Z,7.10
2018-11-11T10:58:23.820Z,8.37
2018-11-11T11:01:00.967Z,7.03
2018-11-11T11:03:35.277Z,11.37
2018-11-11T11:06:08.669Z,9.13
2018-11-11T11:08:45.133Z,12.33
2018-11-11T11:11:18.799Z,10.93
2018-11-11T11:14:02.629Z,12.43
2018-11-11T11:16:37.358Z,8.20
2018-11-11T11:19:10.981Z,6.70
2018-11-11T11:21:44.616Z,9.30
2018-11-11T11:24:18.283Z,8.53
2018-11-11T11:26:51.373Z,9.33
2018-11-11T11:29:24.310Z,7.27
2018-11-11T11:31:57.309Z,7.13
2018-11-11T11:34:30.202Z,8.70
2018-11-11T11:37:03.632Z,7.17
2018-11-11T11:39:36.476Z,9.50
2018-11-11T11:42:09.682Z,9.83
2018-11-11T11:44:42.629Z,8.93
2018-11-11T11:47:15.525Z,5.20
2018-11-11T11:49:48.425Z,7.20
2018-11-11T11:52:21.517Z,6.33
2018-11-11T11:54:54.455Z,6.30
2018-11-11T11:57:27.549Z,7.63
2018-11-11T12:00:01.105Z,6.47
2018-11-11T12:02:39.930Z,6.70
2018-11-11T12:05:17.038Z,7.03
2018-11-11T12:07:53.228Z,6.83
2018-11-11T12:10:26.080Z,8.00
2018-11-11T12:12:59.070Z,4.90
2018-11-11T12:15:32.264Z,6.13
2018-11-11T12:18:08.548Z,4.60
2018-11-11T12:20:49.870Z,12.07
2018-11-11T12:23:22.843Z,9.75
2018-11-11T14:17:07.110Z,8.13
2018-11-11T15:30:01.449Z,1.97
2018-11-11T15:47:42.601Z,1.80
2018-11-11T15:50:17.604Z,2.23
2018-11-11T15:52:51.873Z,4.00
2018-11-11T16:28:20.036Z,1.67
2018-11-11T16:30:53.177Z,2.57
2018-11-11T16:33:26.444Z,3.95
2018-11-11T16:35:59.667Z,7.40
2018-11-11T16:51:09.525Z,1.60
2018-11-11T16:56:13.869Z,1.62
2018-11-11T16:58:47.094Z,4.73
2018-11-11T17:01:20.342Z,3.20
2018-11-11T17:03:53.476Z,2.63
2018-11-11T17:12:20.931Z,2.10
2018-11-11T17:22:27.475Z,1.97
2018-11-11T17:25:00.447Z,2.63
2018-11-11T17:43:27.682Z,4.30
2018-11-11T17:49:31.429Z,5.33
2018-11-11T17:52:03.835Z,2.13
2018-11-11T17:54:37.421Z,2.20
2018-11-11T17:57:09.913Z,2.80
2018-11-11T17:59:42.347Z,3.13
2018-11-11T18:02:14.736Z,3.30
2018-11-11T18:04:47.114Z,4.17
2018-11-11T18:07:19.535Z,7.53
2018-11-11T18:09:51.894Z,2.67
2018-11-11T18:12:24.265Z,2.43
2018-11-11T18:14:57.069Z,4.17
2018-11-11T18:17:29.454Z,1.90
2018-11-11T18:20:01.868Z,1.90
2018-11-11T18:22:34.228Z,2.63
2018-11-11T18:25:06.748Z,4.23
2018-11-11T18:27:39.347Z,2.00
2018-11-11T18:35:17.655Z,3.80
2018-11-11T18:53:04.374Z,3.62
2018-11-11T18:55:36.810Z,2.43
2018-11-11T18:58:09.550Z,3.00
2018-11-11T19:00:43.970Z,2.67
2018-11-11T19:03:18.074Z,4.57
2018-11-11T19:05:56.906Z,2.60
2018-11-11T19:11:26.115Z,2.30
2018-11-11T19:14:02.210Z,2.80
2018-11-11T19:16:34.572Z,2.57
2018-11-11T19:19:08.467Z,2.40
2018-11-11T19:26:42.883Z,5.23
2018-11-11T19:31:45.972Z,5.70
2018-11-11T19:34:18.479Z,4.80
2018-11-11T19:36:50.870Z,2.53
2018-11-11T19:39:23.277Z,1.90
2018-11-11T19:41:57.012Z,2.87
2018-11-11T19:44:29.487Z,3.77
2018-11-11T19:47:01.869Z,2.33
2018-11-11T19:49:34.233Z,2.30
2018-11-11T19:57:08.090Z,4.78
2018-11-11T19:59:40.465Z,3.37
2018-11-11T20:02:12.871Z,3.40
2018-11-11T20:04:45.287Z,3.43
2018-11-11T20:07:17.715Z,2.33
2018-11-11T20:09:56.239Z,4.77
2018-11-11T20:12:28.592Z,3.30
2018-11-11T20:15:01.029Z,4.27
2018-11-11T20:22:35.449Z,2.43
2018-11-11T20:25:09.032Z,2.67
2018-11-11T20:27:41.719Z,5.63
2018-11-11T20:30:23.564Z,2.22
2018-11-11T20:32:56.076Z,1.73
2018-11-11T20:35:29.712Z,2.52
2018-11-11T20:38:02.216Z,2.93
2018-11-11T20:40:34.620Z,2.25
2018-11-11T20:43:07.648Z,2.70
2018-11-11T20:48:10.851Z,2.33
2018-11-11T20:50:43.252Z,3.17
2018-11-11T20:58:17.224Z,6.77
2018-11-11T21:03:20.392Z,3.33
2018-11-11T21:05:52.813Z,3.83
2018-11-11T21:08:25.261Z,3.03
2018-11-11T21:10:58.189Z,2.20
2018-11-11T21:13:30.628Z,4.23
2018-11-11T21:16:03.080Z,2.30
2018-11-11T21:18:35.468Z,3.37
2018-11-11T21:21:07.981Z,2.37
2018-11-11T21:23:40.422Z,7.37
2018-11-11T21:26:12.848Z,7.87
2018-11-11T21:31:15.997Z,17.80
2018-11-11T21:38:49.867Z,3.65
2018-11-11T21:41:22.295Z,3.35
2018-11-11T21:43:54.770Z,3.17
2018-11-11T21:46:27.211Z,2.40
2018-11-11T21:54:01.320Z,3.70
2018-11-11T22:11:39.263Z,3.20
2018-11-11T22:14:11.753Z,1.80
2018-11-11T22:16:45.193Z,2.00
2018-11-11T22:19:17.631Z,2.40
2018-11-11T22:21:49.989Z,3.70
2018-11-11T22:27:42.848Z,2.90
2018-11-11T22:30:15.209Z,8.20
2018-11-11T22:32:47.577Z,3.73
2018-11-11T22:35:19.946Z,8.33
2018-11-11T22:37:52.303Z,3.27
2018-11-11T22:40:24.728Z,3.93
2018-11-11T22:42:58.541Z,3.30
2018-11-11T23:10:39.251Z,3.30
2018-11-11T23:13:11.616Z,4.40
2018-11-11T23:15:43.988Z,4.35
2018-11-11T23:30:50.005Z,5.70
2018-11-11T23:33:23.334Z,3.80
2018-11-11T23:56:00.662Z,6.53
2018-11-11T23:58:33.021Z,7.20
